Time;durP1;ratioP1;P1;durP2;ratioP2;P2;SDS_P1;SDS_P2;PMS_P1;PMS_P2;Temp;Humidity;BMP_temperature;BMP_pressure;BME280_temperature;BME280_humidity;BME280_pressure;Samples;Min_cycle;Max_cycle;Signal;HPM_P1;HPM_P2
2022/08/28 00:00:34;;;;;;;3.63;3.33;;;19.10;99.90;;;;;;5010652;28;20482;-48
2022/08/28 00:03:02;;;;;;;9.00;4.13;;;19.00;99.90;;;;;;5011455;28;20951;-49
2022/08/28 00:05:31;;;;;;;5.47;4.20;;;19.00;99.90;;;;;;5011210;28;20435;-49
2022/08/28 00:07:59;;;;;;;6.90;4.30;;;18.70;99.90;;;;;;5011323;28;20463;-49
2022/08/28 00:10:27;;;;;;;4.90;3.90;;;18.50;99.90;;;;;;5010540;28;20439;-49
2022/08/28 00:12:56;;;;;;;3.60;2.80;;;18.70;99.90;;;;;;5011203;28;20486;-50
2022/08/28 00:15:27;;;;;;;2.90;2.60;;;18.60;99.90;;;;;;5011298;28;20443;-52
2022/08/28 00:17:54;;;;;;;3.80;1.97;;;18.70;99.90;;;;;;5011134;28;20232;-49
2022/08/28 00:20:22;;;;;;;2.70;2.07;;;18.50;99.90;;;;;;5010399;28;20520;-50
2022/08/28 00:22:50;;;;;;;3.80;2.53;;;18.70;99.90;;;;;;5010859;28;20433;-52
2022/08/28 00:25:22;;;;;;;3.33;2.77;;;18.80;99.90;;;;;;5010837;28;20439;-50
2022/08/28 00:27:51;;;;;;;5.60;4.17;;;18.80;99.90;;;;;;5010173;28;20878;-50
2022/08/28 00:30:19;;;;;;;3.10;2.80;;;18.60;99.90;;;;;;5010252;28;20448;-49
2022/08/28 00:32:48;;;;;;;3.80;2.93;;;18.60;99.90;;;;;;5010854;28;20942;-49
2022/08/28 00:35:17;;;;;;;3.47;3.13;;;18.50;99.90;;;;;;5010278;28;20502;-49
2022/08/28 00:37:44;;;;;;;2.90;2.50;;;18.70;99.90;;;;;;5010672;28;20478;-50
2022/08/28 00:40:14;;;;;;;3.17;2.38;;;18.60;99.90;;;;;;5010014;28;20451;-49
2022/08/28 00:42:42;;;;;;;6.30;2.27;;;18.80;99.90;;;;;;5010568;28;20200;-49
2022/08/28 00:45:11;;;;;;;3.83;2.37;;;18.50;99.90;;;;;;5010740;28;20583;-49
2022/08/28 00:47:39;;;;;;;2.30;1.83;;;18.80;99.90;;;;;;5010404;28;20527;-50
2022/08/28 00:50:09;;;;;;;2.30;1.50;;;18.90;99.90;;;;;;5009937;28;20492;-51
2022/08/28 00:52:36;;;;;;;2.67;1.80;;;18.90;99.90;;;;;;5008997;28;20912;-49
2022/08/28 00:55:06;;;;;;;2.47;1.90;;;18.80;99.90;;;;;;5010602;28;20450;-49
2022/08/28 00:57:37;;;;;;;2.47;1.70;;;18.70;99.90;;;;;;5010649;28;20479;-50
2022/08/28 01:00:05;;;;;;;4.23;1.47;;;18.70;99.90;;;;;;5009841;28;20453;-49
2022/08/28 01:02:32;;;;;;;3.70;1.97;;;18.50;99.90;;;;;;5010342;28;20443;-49
2022/08/28 01:04:59;;;;;;;3.87;2.43;;;18.60;99.90;;;;;;5010467;28;20444;-49
2022/08/28 01:07:28;;;;;;;3.73;1.83;;;18.60;99.90;;;;;;5010308;28;20446;-49
2022/08/28 01:09:57;;;;;;;2.77;1.90;;;18.40;99.90;;;;;;5009700;28;20451;-48
2022/08/28 01:12:27;;;;;;;4.80;1.80;;;18.00;99.90;;;;;;5010153;28;20439;-50
2022/08/28 01:14:58;;;;;;;3.30;2.00;;;18.10;99.90;;;;;;5010382;28;20446;-48
2022/08/28 01:17:28;;;;;;;3.58;1.75;;;18.30;99.90;;;;;;5010330;28;20444;-49
2022/08/28 01:19:58;;;;;;;3.50;1.70;;;18.30;99.90;;;;;;5009207;28;20676;-48
2022/08/28 01:22:36;;;;;;;2.57;1.93;;;18.10;99.90;;;;;;5009923;28;20525;-50
2022/08/28 01:25:07;;;;;;;2.90;1.73;;;18.20;99.90;;;;;;5010577;28;20462;-49
2022/08/28 01:27:34;;;;;;;2.40;1.70;;;18.20;99.90;;;;;;5009329;28;20497;-48
2022/08/28 01:30:01;;;;;;;2.03;1.50;;;18.20;99.90;;;;;;5009455;28;20444;-49
2022/08/28 01:32:32;;;;;;;2.17;1.73;;;18.40;99.90;;;;;;5010022;28;20508;-50
2022/08/28 01:35:00;;;;;;;2.30;2.00;;;18.50;99.90;;;;;;5009998;28;20455;-50
2022/08/28 01:37:27;;;;;;;2.40;2.00;;;18.60;99.90;;;;;;5013692;28;20433;-49
2022/08/28 01:39:54;;;;;;;2.40;1.83;;;18.50;99.90;;;;;;5013413;28;20467;-49
2022/08/28 01:42:24;;;;;;;1.93;1.63;;;18.50;99.90;;;;;;5013690;28;20483;-48
2022/08/28 01:44:53;;;;;;;2.40;1.73;;;18.50;99.90;;;;;;5013964;28;20435;-49
2022/08/28 01:47:20;;;;;;;2.33;1.70;;;18.60;99.90;;;;;;5013811;28;20445;-48
2022/08/28 01:49:48;;;;;;;2.53;1.67;;;18.70;99.90;;;;;;5013113;28;20462;-50
2022/08/28 01:52:15;;;;;;;2.47;1.67;;;18.40;99.90;;;;;;5012755;28;20446;-49
2022/08/28 01:54:42;;;;;;;2.50;1.97;;;18.20;99.90;;;;;;5013928;28;20833;-49
2022/08/28 01:57:09;;;;;;;2.77;1.80;;;18.50;99.90;;;;;;5013820;28;20866;-49
2022/08/28 01:59:37;;;;;;;2.30;1.63;;;18.50;99.90;;;;;;5013129;28;20538;-49
2022/08/28 02:02:05;;;;;;;4.15;1.85;;;18.50;99.90;;;;;;5013810;28;20471;-49
2022/08/28 02:04:32;;;;;;;2.40;1.80;;;18.40;99.90;;;;;;5014184;28;20250;-50
2022/08/28 02:06:59;;;;;;;2.63;1.90;;;18.40;99.90;;;;;;5013496;28;20870;-49
2022/08/28 02:09:26;;;;;;;2.13;1.63;;;18.30;99.90;;;;;;5012854;28;20220;-49
2022/08/28 02:11:53;;;;;;;2.40;1.80;;;18.40;99.90;;;;;;5013388;28;20435;-49
2022/08/28 02:14:21;;;;;;;2.20;1.60;;;18.40;99.90;;;;;;5013361;28;20772;-49
2022/08/28 02:16:50;;;;;;;1.73;1.50;;;18.30;99.90;;;;;;5013320;28;20442;-49
2022/08/28 02:19:17;;;;;;;2.97;1.70;;;18.40;99.90;;;;;;5012602;28;20483;-50
2022/08/28 02:21:44;;;;;;;2.83;1.93;;;18.50;99.90;;;;;;5013157;28;20505;-49
2022/08/28 02:24:11;;;;;;;2.67;1.80;;;18.60;99.90;;;;;;5013334;28;20438;-49
2022/08/28 02:26:39;;;;;;;3.70;2.37;;;18.40;99.90;;;;;;5012240;28;20427;-50
2022/08/28 02:29:06;;;;;;;2.57;1.30;;;18.40;99.90;;;;;;5012463;28;20490;-51
2022/08/28 02:31:33;;;;;;;2.33;1.60;;;18.20;99.90;;;;;;5013130;28;20449;-49
2022/08/28 02:34:02;;;;;;;2.60;1.37;;;18.30;99.90;;;;;;5012929;28;20431;-50
2022/08/28 02:36:29;;;;;;;2.87;1.30;;;18.10;99.90;;;;;;5012580;28;20458;-50
2022/08/28 02:38:56;;;;;;;3.37;1.70;;;18.40;99.90;;;;;;5012145;28;20455;-49
2022/08/28 02:41:23;;;;;;;2.97;1.87;;;18.40;99.90;;;;;;5012643;28;20846;-49
2022/08/28 02:43:51;;;;;;;2.30;1.50;;;18.40;99.90;;;;;;5012969;28;20505;-50
2022/08/28 02:46:18;;;;;;;4.03;2.30;;;18.40;99.90;;;;;;5012565;28;20923;-50
2022/08/28 02:48:45;;;;;;;2.47;1.43;;;18.40;99.90;;;;;;5011303;28;20466;-50
2022/08/28 02:51:14;;;;;;;4.50;2.00;;;18.40;99.90;;;;;;5012672;28;20497;-49
2022/08/28 02:53:42;;;;;;;2.53;1.80;;;18.40;99.90;;;;;;5011231;28;20447;-49
2022/08/28 02:56:10;;;;;;;2.00;1.40;;;18.40;99.90;;;;;;5012740;28;20200;-48
2022/08/28 02:58:38;;;;;;;2.30;1.42;;;18.30;99.90;;;;;;5012397;28;20552;-49
2022/08/28 03:01:09;;;;;;;2.20;1.67;;;18.10;99.90;;;;;;5012459;28;20231;-49
2022/08/28 03:03:38;;;;;;;2.67;1.60;;;18.20;99.90;;;;;;5012515;28;20433;-48
2022/08/28 03:06:05;;;;;;;2.33;1.33;;;18.00;99.90;;;;;;5012572;28;20952;-48
2022/08/28 03:08:34;;;;;;;2.53;1.10;;;17.80;99.90;;;;;;5012366;28;20480;-48
2022/08/28 03:11:01;;;;;;;1.87;1.00;;;18.10;99.90;;;;;;5011748;28;20565;-49
2022/08/28 03:13:28;;;;;;;1.97;1.50;;;18.40;99.90;;;;;;5012339;28;20455;-51
2022/08/28 03:15:56;;;;;;;1.95;1.20;;;18.50;99.90;;;;;;5012331;28;20451;-50
2022/08/28 03:18:24;;;;;;;1.70;1.20;;;18.40;99.90;;;;;;5012173;28;20228;-50
2022/08/28 03:20:51;;;;;;;1.80;1.00;;;18.40;99.90;;;;;;5011696;28;20454;-49
2022/08/28 03:23:27;;;;;;;1.60;1.30;;;18.10;99.90;;;;;;5012084;28;20441;-48
2022/08/28 03:25:58;;;;;;;1.50;1.00;;;18.10;99.90;;;;;;5011808;28;20461;-50
2022/08/28 03:28:26;;;;;;;2.27;1.27;;;18.10;99.90;;;;;;5011978;28;20876;-49
2022/08/28 03:30:53;;;;;;;2.00;1.20;;;18.10;99.90;;;;;;5011293;28;20431;-48
2022/08/28 03:33:21;;;;;;;1.77;1.40;;;18.20;99.90;;;;;;5011881;28;20795;-49
2022/08/28 03:35:48;;;;;;;2.10;1.20;;;18.30;99.90;;;;;;5011904;28;20455;-49
2022/08/28 03:38:15;;;;;;;3.20;1.17;;;17.90;99.90;;;;;;5012220;28;20546;-49
2022/08/28 03:40:44;;;;;;;1.90;0.93;;;17.80;99.90;;;;;;5011300;28;20440;-49
2022/08/28 03:43:15;;;;;;;2.40;1.40;;;18.10;99.90;;;;;;5011635;28;20525;-48
2022/08/28 03:45:52;;;;;;;1.73;1.30;;;18.10;99.90;;;;;;5011832;28;20463;-51
2022/08/28 03:48:19;;;;;;;1.93;1.40;;;17.80;99.90;;;;;;5011769;28;20546;-50
2022/08/28 03:50:46;;;;;;;2.33;1.60;;;17.90;99.90;;;;;;5011054;28;20529;-49
2022/08/28 03:53:13;;;;;;;2.00;1.33;;;18.10;99.90;;;;;;5010619;28;20955;-50
2022/08/28 03:55:41;;;;;;;2.33;1.53;;;18.20;99.90;;;;;;5011551;28;20795;-48
2022/08/28 03:58:08;;;;;;;1.73;1.47;;;18.20;99.90;;;;;;5011731;28;20495;-49
2022/08/28 04:00:38;;;;;;;2.00;1.20;;;18.10;99.90;;;;;;5010772;28;20454;-50
2022/08/28 04:03:05;;;;;;;1.80;1.43;;;18.10;99.90;;;;;;5011610;28;20482;-50
2022/08/28 04:05:33;;;;;;;2.00;1.30;;;18.20;99.90;;;;;;5011472;28;20485;-49
2022/08/28 04:08:01;;;;;;;2.10;1.27;;;18.10;99.90;;;;;;5011419;28;20231;-49
2022/08/28 04:10:30;;;;;;;1.97;1.10;;;18.00;99.90;;;;;;5010774;28;20454;-50
2022/08/28 04:12:57;;;;;;;1.97;1.50;;;18.00;99.90;;;;;;5011146;28;20757;-49
2022/08/28 04:15:24;;;;;;;2.87;1.27;;;17.90;99.90;;;;;;5011263;28;20439;-50
2022/08/28 04:17:53;;;;;;;1.63;1.10;;;18.10;99.90;;;;;;5011045;28;20446;-49
2022/08/28 04:20:20;;;;;;;3.25;1.35;;;18.00;99.90;;;;;;5099697;22;20485;-51
2022/08/28 04:22:47;;;;;;;2.13;1.40;;;17.70;99.90;;;;;;5050092;28;20313;-51
2022/08/28 04:25:15;;;;;;;1.80;1.17;;;18.00;99.90;;;;;;5050597;28;20440;-51
2022/08/28 04:27:42;;;;;;;1.50;0.90;;;18.20;99.90;;;;;;5049883;28;20942;-51
2022/08/28 04:30:10;;;;;;;3.40;1.40;;;18.40;99.90;;;;;;5049820;28;20476;-50
2022/08/28 04:32:39;;;;;;;1.52;1.00;;;17.90;99.90;;;;;;5050629;28;20430;-51
2022/08/28 04:35:09;;;;;;;3.23;1.10;;;17.80;99.90;;;;;;5050481;28;20203;-50
2022/08/28 04:37:37;;;;;;;2.63;1.20;;;17.80;99.90;;;;;;5050395;28;20454;-51
2022/08/28 04:40:07;;;;;;;2.77;1.50;;;18.00;99.90;;;;;;5049724;28;20472;-51
2022/08/28 04:42:34;;;;;;;2.33;1.50;;;17.90;99.90;;;;;;5050161;28;20572;-50
2022/08/28 04:45:01;;;;;;;2.00;1.43;;;17.60;99.90;;;;;;5050387;28;20449;-51
2022/08/28 04:47:29;;;;;;;2.53;1.60;;;17.80;99.90;;;;;;5050176;28;20446;-51
2022/08/28 04:49:57;;;;;;;2.73;1.50;;;17.90;99.90;;;;;;5049351;28;20966;-51
2022/08/28 04:52:25;;;;;;;2.00;1.20;;;17.90;99.90;;;;;;5049119;28;20441;-51
2022/08/28 04:54:52;;;;;;;2.53;1.50;;;18.00;99.90;;;;;;5050311;28;20275;-51
2022/08/28 04:57:19;;;;;;;4.23;1.73;;;17.90;99.90;;;;;;5050158;28;20503;-51
2022/08/28 04:59:46;;;;;;;1.88;1.45;;;18.00;99.90;;;;;;5049399;28;20464;-51
2022/08/28 05:02:13;;;;;;;2.37;1.37;;;18.00;99.90;;;;;;5049848;28;20983;-52
2022/08/28 05:04:40;;;;;;;4.37;1.50;;;17.80;99.90;;;;;;5049878;28;20475;-50
2022/08/28 05:07:07;;;;;;;2.60;1.10;;;17.60;99.90;;;;;;5050019;28;20449;-50
2022/08/28 05:09:36;;;;;;;1.77;1.23;;;17.80;99.90;;;;;;5049067;28;20484;-50
2022/08/28 05:12:04;;;;;;;2.40;0.90;;;18.00;99.90;;;;;;5049572;28;20442;-51
2022/08/28 05:14:31;;;;;;;1.70;1.30;;;18.10;99.90;;;;;;5049876;28;20453;-52
2022/08/28 05:16:59;;;;;;;2.33;1.00;;;18.10;99.90;;;;;;5049788;28;20445;-51
2022/08/28 05:19:27;;;;;;;1.43;1.23;;;18.10;99.90;;;;;;5048898;28;20538;-52
2022/08/28 05:21:55;;;;;;;1.87;1.30;;;18.20;99.90;;;;;;5049628;28;21060;-51
2022/08/28 05:24:22;;;;;;;2.40;1.70;;;18.20;99.90;;;;;;5049736;28;20445;-50
2022/08/28 05:26:50;;;;;;;1.70;1.03;;;18.00;99.90;;;;;;5048671;28;20449;-50
2022/08/28 05:29:18;;;;;;;2.37;1.30;;;17.80;99.90;;;;;;5048976;28;20984;-51
2022/08/28 05:31:46;;;;;;;1.73;1.27;;;18.00;99.90;;;;;;5049643;28;20450;-51
2022/08/28 05:34:14;;;;;;;1.77;1.40;;;18.10;99.90;;;;;;5049999;28;20996;-50
2022/08/28 05:36:41;;;;;;;2.43;1.83;;;18.00;99.90;;;;;;5047956;28;21091;-50
2022/08/28 05:39:10;;;;;;;2.63;1.27;;;18.10;99.90;;;;;;5049425;28;20518;-50
2022/08/28 05:41:39;;;;;;;1.57;1.17;;;18.10;99.90;;;;;;5049304;28;20915;-51
2022/08/28 05:44:10;;;;;;;2.20;1.60;;;18.30;99.90;;;;;;5049729;28;20429;-51
2022/08/28 05:46:40;;;;;;;1.93;1.70;;;18.20;99.90;;;;;;5049798;28;20237;-52
2022/08/28 05:49:08;;;;;;;2.25;1.48;;;18.20;99.90;;;;;;5048918;28;20470;-50
2022/08/28 05:51:35;;;;;;;2.57;1.50;;;18.10;99.90;;;;;;5049356;28;20256;-50
2022/08/28 05:54:03;;;;;;;2.03;1.83;;;18.10;99.90;;;;;;5048464;28;20449;-50
2022/08/28 05:56:35;;;;;;;2.27;2.07;;;18.30;99.90;;;;;;5049340;28;20445;-50
2022/08/28 05:59:04;;;;;;;4.10;2.40;;;18.20;99.90;;;;;;5048821;28;20982;-50
2022/08/28 06:01:35;;;;;;;2.80;2.47;;;18.10;99.90;;;;;;5049575;28;20443;-50
2022/08/28 06:04:06;;;;;;;3.10;2.43;;;18.10;99.90;;;;;;5049149;28;20881;-50
2022/08/28 06:06:35;;;;;;;7.57;3.20;;;18.30;99.90;;;;;;5049442;28;20441;-51
2022/08/28 06:09:05;;;;;;;3.70;2.60;;;18.40;99.90;;;;;;5048522;28;20452;-50
2022/08/28 06:11:33;;;;;;;4.63;3.00;;;18.10;99.90;;;;;;5049477;28;20454;-50
2022/08/28 06:14:01;;;;;;;3.90;3.00;;;18.20;99.90;;;;;;5049369;28;20457;-51
2022/08/28 06:16:30;;;;;;;3.10;2.80;;;18.30;99.90;;;;;;5049306;28;20506;-51
2022/08/28 06:18:59;;;;;;;3.73;2.53;;;18.20;99.90;;;;;;5048380;28;20318;-50
2022/08/28 06:21:26;;;;;;;3.70;2.73;;;18.20;99.90;;;;;;5049758;28;20453;-51
2022/08/28 06:23:53;;;;;;;4.00;3.40;;;18.20;99.90;;;;;;5052854;28;20480;-51
2022/08/28 06:26:20;;;;;;;2.90;2.30;;;18.20;99.90;;;;;;5052337;28;20532;-52
2022/08/28 06:28:47;;;;;;;8.33;2.50;;;18.40;99.90;;;;;;5052201;28;20981;-50
2022/08/28 06:31:15;;;;;;;2.78;2.47;;;18.50;99.90;;;;;;5052736;28;20445;-53
2022/08/28 06:33:42;;;;;;;3.10;2.47;;;18.40;99.90;;;;;;5052852;28;20628;-51
2022/08/28 06:36:10;;;;;;;2.47;2.27;;;18.60;99.90;;;;;;5052860;28;20449;-51
2022/08/28 06:38:37;;;;;;;3.03;2.10;;;18.70;99.90;;;;;;5052824;28;20452;-51
2022/08/28 06:41:09;;;;;;;2.37;1.90;;;18.70;99.90;;;;;;5052503;28;20203;-51
2022/08/28 06:43:36;;;;;;;3.00;1.77;;;18.60;99.90;;;;;;5052405;28;21047;-51
2022/08/28 06:46:03;;;;;;;3.40;2.17;;;18.60;99.90;;;;;;5052373;28;20484;-52
2022/08/28 06:48:31;;;;;;;3.50;2.10;;;18.60;99.90;;;;;;5052383;28;20923;-50
2022/08/28 06:50:59;;;;;;;2.80;2.10;;;18.60;99.90;;;;;;5051623;28;20815;-50
2022/08/28 06:53:30;;;;;;;2.93;2.23;;;18.60;99.90;;;;;;5051406;28;20433;-51
2022/08/28 06:56:00;;;;;;;3.20;2.43;;;18.60;99.90;;;;;;5052805;28;20463;-50
2022/08/28 06:58:27;;;;;;;2.30;2.10;;;18.70;99.90;;;;;;5052205;28;20449;-51
2022/08/28 07:01:02;;;;;;;3.27;2.00;;;18.70;99.90;;;;;;5051626;28;20519;-51
2022/08/28 07:03:30;;;;;;;3.22;2.53;;;18.80;99.90;;;;;;5052321;28;20875;-51
2022/08/28 07:05:57;;;;;;;2.60;2.00;;;18.70;99.90;;;;;;5052246;28;20751;-51
2022/08/28 07:08:25;;;;;;;4.70;2.50;;;18.60;99.90;;;;;;5052128;28;20463;-51
2022/08/28 07:10:54;;;;;;;6.07;2.63;;;18.50;99.90;;;;;;5051335;28;20799;-52
2022/08/28 07:13:21;;;;;;;4.80;2.90;;;18.60;99.90;;;;;;5052094;28;20507;-52
2022/08/28 07:15:48;;;;;;;3.80;2.80;;;18.60;99.90;;;;;;5052069;28;20518;-51
2022/08/28 07:18:16;;;;;;;4.50;2.93;;;18.70;99.90;;;;;;5051873;28;20241;-50
2022/08/28 07:20:43;;;;;;;3.20;2.80;;;18.80;99.90;;;;;;5051245;28;20471;-50
2022/08/28 07:23:10;;;;;;;2.63;2.43;;;18.80;99.90;;;;;;5051808;28;20822;-50
2022/08/28 07:25:40;;;;;;;4.03;2.20;;;18.60;99.90;;;;;;5051309;28;20865;-50
2022/08/28 07:28:08;;;;;;;3.80;2.60;;;18.70;99.90;;;;;;5051654;28;20548;-50
2022/08/28 07:30:35;;;;;;;3.55;2.60;;;18.70;99.90;;;;;;5051077;28;20598;-51
2022/08/28 07:33:03;;;;;;;2.90;2.13;;;18.70;99.90;;;;;;5051157;28;20199;-50
2022/08/28 07:35:30;;;;;;;2.40;2.20;;;18.60;99.90;;;;;;5051013;28;20452;-49
2022/08/28 07:37:57;;;;;;;3.47;2.90;;;18.70;99.90;;;;;;5052395;28;20510;-50
2022/08/28 07:40:24;;;;;;;2.90;2.47;;;18.70;99.90;;;;;;5051320;28;20556;-51
2022/08/28 07:45:37;;;;;;;2.40;1.93;;;18.60;99.90;;;;;;5051425;28;20571;-50
2022/08/28 07:48:07;;;;;;;3.13;2.03;;;18.70;99.90;;;;;;5051449;28;20535;-51
2022/08/28 07:50:34;;;;;;;2.23;2.00;;;18.70;99.90;;;;;;5050430;28;21006;-51
2022/08/28 07:53:01;;;;;;;3.20;2.67;;;18.70;99.90;;;;;;5050182;28;20438;-50
2022/08/28 07:55:30;;;;;;;2.23;2.00;;;18.80;99.90;;;;;;5051305;28;20469;-50
2022/08/28 07:57:57;;;;;;;2.93;2.50;;;18.90;99.90;;;;;;5051193;28;20441;-50
2022/08/28 08:00:24;;;;;;;2.30;1.90;;;19.00;99.90;;;;;;5050877;28;20483;-51
2022/08/28 08:02:52;;;;;;;2.65;2.08;;;18.90;99.90;;;;;;5050921;28;21032;-50
2022/08/28 08:05:19;;;;;;;3.00;2.37;;;18.90;99.90;;;;;;5051176;28;20457;-51
2022/08/28 08:07:46;;;;;;;2.90;1.67;;;19.00;99.90;;;;;;5050937;28;20937;-51
2022/08/28 08:10:14;;;;;;;2.27;2.03;;;19.00;99.90;;;;;;5050328;28;20481;-50
2022/08/28 08:12:43;;;;;;;2.47;2.27;;;18.90;99.90;;;;;;5050606;28;20837;-52
2022/08/28 08:15:10;;;;;;;2.60;1.80;;;19.00;99.90;;;;;;5050912;28;20453;-50
2022/08/28 08:17:38;;;;;;;2.55;2.00;;;19.00;99.90;;;;;;5051163;28;20272;-51
2022/08/28 08:20:08;;;;;;;2.10;1.77;;;18.80;99.90;;;;;;5050305;28;20509;-50
2022/08/28 08:22:36;;;;;;;2.07;1.60;;;18.50;99.90;;;;;;5051418;28;20507;-52
2022/08/28 08:25:04;;;;;;;3.10;2.33;;;18.50;99.90;;;;;;5050907;28;20440;-52
2022/08/28 08:27:31;;;;;;;2.53;2.07;;;18.70;99.90;;;;;;5050995;28;20457;-51
2022/08/28 08:29:58;;;;;;;3.80;2.10;;;18.80;99.90;;;;;;5050140;28;20523;-51
2022/08/28 08:32:25;;;;;;;2.70;2.07;;;18.80;99.90;;;;;;5050671;28;20500;-53
2022/08/28 08:34:55;;;;;;;4.00;2.27;;;18.70;99.90;;;;;;5050598;28;20525;-48
2022/08/28 08:37:23;;;;;;;3.40;2.17;;;18.80;99.90;;;;;;5049898;28;20425;-49
2022/08/28 08:39:52;;;;;;;3.20;2.43;;;18.70;99.90;;;;;;5049531;28;20567;-49
2022/08/28 08:42:25;;;;;;;2.77;2.10;;;18.70;99.90;;;;;;5050448;28;20448;-48
2022/08/28 08:44:53;;;;;;;3.00;2.57;;;18.90;99.90;;;;;;5050145;28;20469;-48
2022/08/28 08:47:26;;;;;;;2.80;2.60;;;19.00;99.90;;;;;;5050255;28;20443;-51
2022/08/28 08:49:56;;;;;;;2.77;2.00;;;18.90;99.90;;;;;;5049522;28;20526;-49
2022/08/28 08:52:44;;;;;;;3.97;2.70;;;19.00;99.90;;;;;;5049234;28;20445;-48
2022/08/28 08:55:20;;;;;;;4.10;2.40;;;19.00;99.90;;;;;;5050077;28;20938;-49
2022/08/28 08:57:52;;;;;;;2.50;2.20;;;19.20;99.90;;;;;;5050002;28;20865;-50
2022/08/28 09:00:20;;;;;;;3.67;2.70;;;19.30;99.90;;;;;;5049324;28;20474;-49
2022/08/28 09:02:54;;;;;;;3.90;2.43;;;19.40;99.90;;;;;;5049971;28;20425;-49
2022/08/28 09:05:26;;;;;;;2.93;2.17;;;19.50;99.90;;;;;;5050137;28;20955;-49
2022/08/28 09:08:01;;;;;;;2.70;2.30;;;19.40;99.90;;;;;;5049898;28;20483;-48
2022/08/28 09:10:38;;;;;;;2.63;1.90;;;19.10;99.90;;;;;;5049273;28;20473;-50
2022/08/28 09:13:14;;;;;;;2.77;1.90;;;19.20;99.90;;;;;;5049887;28;20441;-49
2022/08/28 09:15:45;;;;;;;2.17;1.60;;;19.40;99.90;;;;;;5049963;28;20953;-48
2022/08/28 09:18:14;;;;;;;3.22;2.53;;;19.60;99.90;;;;;;5049835;28;20444;-50
2022/08/28 09:20:42;;;;;;;3.80;2.57;;;19.70;99.90;;;;;;5048915;28;20213;-49
2022/08/28 09:23:10;;;;;;;4.00;2.10;;;19.70;99.90;;;;;;5050000;28;20849;-50
2022/08/28 09:25:54;;;;;;;2.00;1.50;;;19.50;99.90;;;;;;5049448;28;20453;-47
2022/08/28 09:28:24;;;;;;;2.30;1.83;;;19.40;99.90;;;;;;5049723;28;20456;-48
2022/08/28 09:31:01;;;;;;;1.87;1.67;;;19.40;99.90;;;;;;5049020;28;20428;-48
2022/08/28 09:33:40;;;;;;;7.63;1.70;;;19.50;99.90;;;;;;5049483;28;21017;-49
2022/08/28 09:36:30;;;;;;;2.35;1.88;;;19.70;99.90;;;;;;5049551;28;20436;-49
2022/08/28 09:39:17;;;;;;;2.30;2.00;;;19.90;99.90;;;;;;5049258;28;20235;-48
2022/08/28 09:45:05;;;;;;;2.30;1.87;;;19.80;99.90;;;;;;5043564;28;20875;-49
2022/08/28 09:47:47;;;;;;;2.60;1.80;;;19.70;99.90;;;;;;5049692;28;20454;-50
2022/08/28 09:50:34;;;;;;;3.13;2.23;;;19.60;99.90;;;;;;5048903;28;20505;-49
2022/08/28 09:53:17;;;;;;;2.60;1.70;;;19.60;99.90;;;;;;5048393;28;20422;-49
2022/08/28 09:55:56;;;;;;;1.80;1.53;;;19.50;99.90;;;;;;5049650;28;20441;-48
2022/08/28 09:58:30;;;;;;;2.70;2.25;;;19.40;99.90;;;;;;5053627;28;20435;-49
2022/08/28 10:01:07;;;;;;;2.20;2.00;;;19.30;99.90;;;;;;5052789;28;20273;-49
2022/08/28 10:03:40;;;;;;;2.00;1.80;;;19.40;99.90;;;;;;5053423;28;20487;-49
2022/08/28 10:06:13;;;;;;;1.73;1.40;;;19.50;99.90;;;;;;5053293;28;20441;-49
2022/08/28 10:08:57;;;;;;;1.90;1.50;;;19.70;99.90;;;;;;5052815;28;20540;-46
2022/08/28 10:11:32;;;;;;;2.87;1.53;;;19.70;99.90;;;;;;5053403;28;20448;-49
2022/08/28 10:14:09;;;;;;;2.65;1.45;;;19.70;99.90;;;;;;5053148;28;20437;-48
2022/08/28 10:16:46;;;;;;;3.00;1.97;;;19.60;99.90;;;;;;5053265;28;20647;-49
2022/08/28 10:19:26;;;;;;;3.40;1.60;;;19.50;99.90;;;;;;5066944;22;20521;-49
2022/08/28 10:22:01;;;;;;;1.97;1.50;;;19.70;99.90;;;;;;5053012;28;20475;-49
2022/08/28 10:24:47;;;;;;;2.37;1.73;;;19.60;99.90;;;;;;5052988;28;20510;-49
2022/08/28 10:27:30;;;;;;;3.40;2.17;;;19.50;99.90;;;;;;5052562;28;20482;-49
2022/08/28 10:30:06;;;;;;;2.23;1.43;;;19.70;99.90;;;;;;5052049;28;20463;-50
2022/08/28 10:33:09;;;;;;;2.73;1.87;;;19.90;99.90;;;;;;5052844;28;20556;-49
2022/08/28 10:35:45;;;;;;;2.20;1.97;;;20.10;99.90;;;;;;5048934;28;20445;-49
2022/08/28 10:38:16;;;;;;;3.00;1.60;;;20.00;99.90;;;;;;5052857;28;20959;-49
2022/08/28 10:40:53;;;;;;;2.80;1.50;;;20.00;99.90;;;;;;5052067;28;20473;-51
2022/08/28 10:43:29;;;;;;;1.98;1.58;;;19.90;99.90;;;;;;5052568;28;20796;-52
2022/08/28 10:46:00;;;;;;;2.47;2.27;;;19.90;99.90;;;;;;5052674;28;20276;-49
2022/08/28 10:48:29;;;;;;;1.73;1.43;;;19.60;99.90;;;;;;5052661;28;20452;-49
2022/08/28 10:50:59;;;;;;;2.37;1.57;;;19.90;99.90;;;;;;5051762;28;20477;-50
2022/08/28 10:53:32;;;;;;;3.20;1.67;;;20.20;99.90;;;;;;5051294;28;20425;-51
2022/08/28 10:56:03;;;;;;;1.90;1.60;;;20.20;99.90;;;;;;5052603;28;20449;-50
2022/08/28 10:58:34;;;;;;;2.07;1.87;;;20.10;99.90;;;;;;5052343;28;20930;-49
2022/08/28 11:01:05;;;;;;;2.10;1.47;;;20.20;99.90;;;;;;5051577;28;20884;-49
2022/08/28 11:03:42;;;;;;;1.93;1.40;;;20.30;99.90;;;;;;5052455;28;20445;-49
2022/08/28 11:06:18;;;;;;;2.10;1.53;;;20.30;99.90;;;;;;5052177;28;20467;-52
2022/08/28 11:08:52;;;;;;;2.43;1.53;;;20.20;99.90;;;;;;5050546;28;20522;-50
2022/08/28 11:11:44;;;;;;;2.35;1.60;;;20.30;99.90;;;;;;5052364;28;20458;-52
2022/08/28 11:14:24;;;;;;;2.07;1.80;;;20.40;99.90;;;;;;5052335;28;20202;-50
2022/08/28 11:16:53;;;;;;;2.80;1.80;;;20.40;99.90;;;;;;5052622;28;20454;-50
2022/08/28 11:19:58;;;;;;;2.10;1.50;;;20.50;99.90;;;;;;5050875;28;20796;-49
2022/08/28 11:22:28;;;;;;;2.37;1.27;;;20.30;99.90;;;;;;5040415;28;20440;-50
2022/08/28 11:25:02;;;;;;;1.80;1.40;;;20.40;99.90;;;;;;5051767;28;20472;-50
2022/08/28 11:27:32;;;;;;;3.13;2.03;;;20.30;99.90;;;;;;5051342;28;20465;-50
2022/08/28 11:30:29;;;;;;;2.13;1.60;;;20.40;99.90;;;;;;5051046;28;20473;-52
2022/08/28 11:33:05;;;;;;;2.77;1.83;;;20.60;99.90;;;;;;5051682;28;20437;-49
2022/08/28 11:35:49;;;;;;;2.17;1.90;;;20.70;99.90;;;;;;5051153;28;20512;-50
2022/08/28 11:38:52;;;;;;;2.30;1.80;;;20.70;99.90;;;;;;5051893;28;20520;-50
2022/08/28 11:41:23;;;;;;;1.92;1.65;;;20.80;99.90;;;;;;5021846;28;20547;-52
2022/08/28 11:43:52;;;;;;;2.00;1.40;;;20.80;99.90;;;;;;5051460;28;20222;-51
2022/08/28 11:46:30;;;;;;;2.03;1.77;;;20.70;99.90;;;;;;5051532;28;20475;-49
2022/08/28 11:49:00;;;;;;;5.00;1.67;;;20.70;99.90;;;;;;5050776;28;20449;-49
2022/08/28 11:51:47;;;;;;;2.10;1.70;;;20.70;99.90;;;;;;5051466;28;20453;-50
2022/08/28 11:54:27;;;;;;;2.13;1.47;;;20.70;99.90;;;;;;5050628;28;20444;-50
2022/08/28 11:57:06;;;;;;;2.15;1.83;;;20.80;99.90;;;;;;5051355;28;20952;-52
2022/08/28 12:00:07;;;;;;;47.28;13.77;;;20.80;99.90;;;;;;5050506;28;20241;-50
2022/08/28 12:02:52;;;;;;;4.60;2.30;;;20.90;99.90;;;;;;5051095;28;20214;-50
2022/08/28 12:05:47;;;;;;;1.83;1.60;;;20.90;99.90;;;;;;5050941;28;20530;-51
2022/08/28 12:09:09;;;;;;;2.47;2.00;;;20.80;99.90;;;;;;5051277;28;20456;-50
2022/08/28 12:12:01;;;;;;;2.73;2.27;;;20.90;99.90;;;;;;5050953;28;20468;-50
2022/08/28 12:15:01;;;;;;;2.27;1.73;;;20.90;99.90;;;;;;5050874;28;20541;-50
2022/08/28 12:17:45;;;;;;;2.20;1.90;;;20.90;99.90;;;;;;5044408;28;20449;-50
2022/08/28 12:20:20;;;;;;;1.70;1.53;;;21.00;99.90;;;;;;5049688;28;20543;-51
2022/08/28 12:22:51;;;;;;;2.63;2.43;;;20.90;99.90;;;;;;5050780;28;20429;-49
2022/08/28 12:25:35;;;;;;;2.43;2.07;;;20.90;99.90;;;;;;5050565;28;21040;-51
2022/08/28 12:28:14;;;;;;;2.33;2.13;;;20.80;99.90;;;;;;5049048;28;20445;-53
2022/08/28 12:30:51;;;;;;;1.97;1.77;;;20.90;99.90;;;;;;5050317;28;20531;-49
2022/08/28 12:33:24;;;;;;;1.60;1.50;;;20.90;99.90;;;;;;5050540;28;20941;-50
2022/08/28 12:35:51;;;;;;;3.17;1.83;;;20.90;99.90;;;;;;5050211;28;20447;-50
2022/08/28 12:38:21;;;;;;;2.33;1.47;;;20.90;99.90;;;;;;5050549;28;20449;-50
2022/08/28 12:40:52;;;;;;;1.90;1.70;;;20.90;99.90;;;;;;5049834;28;20469;-49
2022/08/28 12:43:27;;;;;;;2.23;1.77;;;20.90;99.90;;;;;;5050346;28;20426;-50
2022/08/28 12:45:56;;;;;;;3.60;1.87;;;20.90;99.90;;;;;;5050266;28;20477;-51
2022/08/28 12:48:25;;;;;;;2.33;1.90;;;20.90;99.90;;;;;;5050182;28;20939;-50
2022/08/28 12:51:01;;;;;;;1.73;1.50;;;20.90;99.90;;;;;;5049634;28;20523;-50
2022/08/28 12:53:38;;;;;;;1.70;1.30;;;21.00;99.90;;;;;;5049131;28;20441;-49
2022/08/28 12:56:07;;;;;;;1.80;1.40;;;20.90;99.90;;;;;;5050172;28;20954;-51
2022/08/28 12:58:38;;;;;;;2.53;1.40;;;20.90;99.90;;;;;;5050165;28;20472;-51
2022/08/28 13:01:08;;;;;;;2.13;1.50;;;21.00;99.90;;;;;;5049813;28;20552;-49
2022/08/28 13:03:43;;;;;;;3.45;1.45;;;20.90;99.90;;;;;;5050055;28;20866;-50
2022/08/28 13:06:10;;;;;;;2.20;1.33;;;20.80;99.90;;;;;;5049891;28;20213;-50
2022/08/28 13:08:39;;;;;;;2.00;1.53;;;20.80;99.90;;;;;;5049629;28;20482;-51
2022/08/28 13:11:06;;;;;;;2.90;1.80;;;20.80;99.90;;;;;;5049657;28;20473;-50
2022/08/28 13:13:37;;;;;;;2.23;1.60;;;20.80;99.90;;;;;;5049870;28;20946;-50